Terminal Aerodrome Forecast
Issued by NWS

Home | Current Version | Previous Version | Text Only | Print | Product List | Glossary On
Versions: 1 2 3 4 5 6 7 8 9 10 11 12 13 14 15 16 17 18 19
000
FTUS44 KTSA 290500
TAFXNA
TAF
KXNA 290520Z 2906/3006 00000KT P6SM SCT250
     FM290900 00000KT 4SM BR SCT250
     FM291500 09005KT P6SM BKN250
     FM300000 05006KT P6SM BKN100=

USA.gov is the U.S. government's official web portal to all federal, state and local government web resources and services.